sensor_id;sensor_type;location;lat;lon;timestamp;temperature;humidity
18508;DHT22;9383;50.928;12.116;2022-07-18T00:00:19;13.10;83.50
18508;DHT22;9383;50.928;12.116;2022-07-18T00:02:44;13.10;83.90
18508;DHT22;9383;50.928;12.116;2022-07-18T00:05:11;12.90;83.50
18508;DHT22;9383;50.928;12.116;2022-07-18T00:07:37;12.90;83.60
18508;DHT22;9383;50.928;12.116;2022-07-18T00:10:04;12.90;84.80
18508;DHT22;9383;50.928;12.116;2022-07-18T00:12:31;12.80;85.00
18508;DHT22;9383;50.928;12.116;2022-07-18T00:14:57;12.80;85.00
18508;DHT22;9383;50.928;12.116;2022-07-18T00:17:24;12.70;85.10
18508;DHT22;9383;50.928;12.116;2022-07-18T00:19:50;12.60;84.70
18508;DHT22;9383;50.928;12.116;2022-07-18T00:22:16;14.00;85.40
18508;DHT22;9383;50.928;12.116;2022-07-18T00:24:42;12.60;85.10
18508;DHT22;9383;50.928;12.116;2022-07-18T00:27:08;12.50;85.20
18508;DHT22;9383;50.928;12.116;2022-07-18T00:29:35;12.50;84.80
18508;DHT22;9383;50.928;12.116;2022-07-18T00:32:04;12.50;85.20
18508;DHT22;9383;50.928;12.116;2022-07-18T00:34:31;12.40;85.40
18508;DHT22;9383;50.928;12.116;2022-07-18T00:36:58;12.30;85.10
18508;DHT22;9383;50.928;12.116;2022-07-18T00:39:25;12.30;85.60
18508;DHT22;9383;50.928;12.116;2022-07-18T00:41:52;12.30;85.10
18508;DHT22;9383;50.928;12.116;2022-07-18T00:44:23;12.20;85.20
18508;DHT22;9383;50.928;12.116;2022-07-18T00:46:53;12.20;86.00
18508;DHT22;9383;50.928;12.116;2022-07-18T00:49:22;12.10;86.00
18508;DHT22;9383;50.928;12.116;2022-07-18T00:51:49;12.00;85.60
18508;DHT22;9383;50.928;12.116;2022-07-18T00:54:16;12.00;85.70
18508;DHT22;9383;50.928;12.116;2022-07-18T00:56:44;12.00;86.40
18508;DHT22;9383;50.928;12.116;2022-07-18T00:59:11;12.00;86.50
18508;DHT22;9383;50.928;12.116;2022-07-18T01:01:39;11.90;86.70
18508;DHT22;9383;50.928;12.116;2022-07-18T01:04:10;11.90;86.80
18508;DHT22;9383;50.928;12.116;2022-07-18T01:06:38;11.90;86.90
18508;DHT22;9383;50.928;12.116;2022-07-18T01:09:05;11.80;87.00
18508;DHT22;9383;50.928;12.116;2022-07-18T01:11:33;11.80;87.20
18508;DHT22;9383;50.928;12.116;2022-07-18T01:14:02;11.70;87.00
18508;DHT22;9383;50.928;12.116;2022-07-18T01:18:56;11.60;87.20
18508;DHT22;9383;50.928;12.116;2022-07-18T01:21:22;11.60;87.80
18508;DHT22;9383;50.928;12.116;2022-07-18T01:23:50;11.60;87.90
18508;DHT22;9383;50.928;12.116;2022-07-18T01:26:17;11.50;87.60
18508;DHT22;9383;50.928;12.116;2022-07-18T01:28:44;11.50;88.10
18508;DHT22;9383;50.928;12.116;2022-07-18T01:31:11;11.40;88.20
18508;DHT22;9383;50.928;12.116;2022-07-18T01:33:37;11.40;88.40
18508;DHT22;9383;50.928;12.116;2022-07-18T01:36:05;11.30;88.50
18508;DHT22;9383;50.928;12.116;2022-07-18T01:38:33;11.30;88.70
18508;DHT22;9383;50.928;12.116;2022-07-18T01:41:00;11.30;88.90
18508;DHT22;9383;50.928;12.116;2022-07-18T01:43:27;11.20;89.00
18508;DHT22;9383;50.928;12.116;2022-07-18T01:45:54;11.20;89.20
18508;DHT22;9383;50.928;12.116;2022-07-18T01:48:21;11.10;89.40
18508;DHT22;9383;50.928;12.116;2022-07-18T01:50:50;11.10;89.50
18508;DHT22;9383;50.928;12.116;2022-07-18T01:53:17;11.10;89.60
18508;DHT22;9383;50.928;12.116;2022-07-18T01:55:43;11.10;89.80
18508;DHT22;9383;50.928;12.116;2022-07-18T01:58:09;11.00;89.90
18508;DHT22;9383;50.928;12.116;2022-07-18T02:00:35;11.00;89.50
18508;DHT22;9383;50.928;12.116;2022-07-18T02:03:01;11.00;90.00
18508;DHT22;9383;50.928;12.116;2022-07-18T02:05:27;10.90;90.10
18508;DHT22;9383;50.928;12.116;2022-07-18T02:07:53;10.90;90.10
18508;DHT22;9383;50.928;12.116;2022-07-18T02:10:21;11.00;90.20
18508;DHT22;9383;50.928;12.116;2022-07-18T02:12:48;10.90;90.30
18508;DHT22;9383;50.928;12.116;2022-07-18T02:15:15;10.80;90.40
18508;DHT22;9383;50.928;12.116;2022-07-18T02:17:42;11.70;90.60
18508;DHT22;9383;50.928;12.116;2022-07-18T02:20:12;10.80;90.50
18508;DHT22;9383;50.928;12.116;2022-07-18T02:22:39;13.20;91.20
18508;DHT22;9383;50.928;12.116;2022-07-18T02:25:07;10.60;90.50
18508;DHT22;9383;50.928;12.116;2022-07-18T02:27:33;10.60;90.80
18508;DHT22;9383;50.928;12.116;2022-07-18T02:29:59;10.60;90.90
18508;DHT22;9383;50.928;12.116;2022-07-18T02:32:25;10.60;90.90
18508;DHT22;9383;50.928;12.116;2022-07-18T02:34:51;10.50;91.00
18508;DHT22;9383;50.928;12.116;2022-07-18T02:37:18;10.50;91.00
18508;DHT22;9383;50.928;12.116;2022-07-18T02:39:44;10.50;91.10
18508;DHT22;9383;50.928;12.116;2022-07-18T02:42:10;10.40;90.90
18508;DHT22;9383;50.928;12.116;2022-07-18T02:44:36;10.50;91.20
18508;DHT22;9383;50.928;12.116;2022-07-18T02:47:03;10.40;91.30
18508;DHT22;9383;50.928;12.116;2022-07-18T02:49:29;10.70;91.40
18508;DHT22;9383;50.928;12.116;2022-07-18T02:52:07;10.40;91.40
18508;DHT22;9383;50.928;12.116;2022-07-18T02:54:36;10.40;91.50
18508;DHT22;9383;50.928;12.116;2022-07-18T02:57:03;10.30;91.50
18508;DHT22;9383;50.928;12.116;2022-07-18T02:59:30;10.30;91.60
18508;DHT22;9383;50.928;12.116;2022-07-18T03:01:56;10.30;91.40
18508;DHT22;9383;50.928;12.116;2022-07-18T03:04:23;12.40;92.20
18508;DHT22;9383;50.928;12.116;2022-07-18T03:06:50;10.20;91.70
18508;DHT22;9383;50.928;12.116;2022-07-18T03:09:17;10.20;91.80
18508;DHT22;9383;50.928;12.116;2022-07-18T03:11:44;10.20;91.80
18508;DHT22;9383;50.928;12.116;2022-07-18T03:14:11;10.10;91.90
18508;DHT22;9383;50.928;12.116;2022-07-18T03:16:37;10.10;92.00
18508;DHT22;9383;50.928;12.116;2022-07-18T03:19:04;10.10;92.00
18508;DHT22;9383;50.928;12.116;2022-07-18T03:21:30;10.10;92.10
18508;DHT22;9383;50.928;12.116;2022-07-18T03:23:56;10.10;92.10
18508;DHT22;9383;50.928;12.116;2022-07-18T03:26:23;10.10;92.20
18508;DHT22;9383;50.928;12.116;2022-07-18T03:28:49;10.00;92.00
18508;DHT22;9383;50.928;12.116;2022-07-18T03:31:15;10.90;92.50
18508;DHT22;9383;50.928;12.116;2022-07-18T03:33:41;10.00;92.40
18508;DHT22;9383;50.928;12.116;2022-07-18T03:36:07;10.00;92.40
18508;DHT22;9383;50.928;12.116;2022-07-18T03:38:34;10.00;92.50
18508;DHT22;9383;50.928;12.116;2022-07-18T03:41:02;10.00;92.60
18508;DHT22;9383;50.928;12.116;2022-07-18T03:43:31;11.00;92.90
18508;DHT22;9383;50.928;12.116;2022-07-18T03:45:57;9.90;92.70
18508;DHT22;9383;50.928;12.116;2022-07-18T03:48:23;10.00;92.70
18508;DHT22;9383;50.928;12.116;2022-07-18T03:50:49;10.00;92.80
18508;DHT22;9383;50.928;12.116;2022-07-18T03:53:15;9.90;92.60
18508;DHT22;9383;50.928;12.116;2022-07-18T03:55:41;9.70;92.70
18508;DHT22;9383;50.928;12.116;2022-07-18T03:58:07;9.90;93.00
18508;DHT22;9383;50.928;12.116;2022-07-18T04:00:33;9.90;93.10
18508;DHT22;9383;50.928;12.116;2022-07-18T04:03:00;9.90;93.20
18508;DHT22;9383;50.928;12.116;2022-07-18T04:05:27;9.90;93.20
18508;DHT22;9383;50.928;12.116;2022-07-18T04:07:53;9.90;93.30
18508;DHT22;9383;50.928;12.116;2022-07-18T04:10:19;9.90;93.30
18508;DHT22;9383;50.928;12.116;2022-07-18T04:12:47;9.90;93.40
18508;DHT22;9383;50.928;12.116;2022-07-18T04:15:15;10.00;93.40
18508;DHT22;9383;50.928;12.116;2022-07-18T04:17:42;10.00;93.40
18508;DHT22;9383;50.928;12.116;2022-07-18T04:20:09;10.00;93.30
18508;DHT22;9383;50.928;12.116;2022-07-18T04:22:59;10.00;93.50
18508;DHT22;9383;50.928;12.116;2022-07-18T04:25:29;10.00;93.70
18508;DHT22;9383;50.928;12.116;2022-07-18T04:27:59;10.10;93.60
18508;DHT22;9383;50.928;12.116;2022-07-18T04:30:26;10.80;93.90
18508;DHT22;9383;50.928;12.116;2022-07-18T04:32:54;10.20;93.70
18508;DHT22;9383;50.928;12.116;2022-07-18T04:35:22;10.20;93.70
18508;DHT22;9383;50.928;12.116;2022-07-18T04:40:18;10.30;94.00
18508;DHT22;9383;50.928;12.116;2022-07-18T04:45:11;10.40;94.20
18508;DHT22;9383;50.928;12.116;2022-07-18T04:47:38;10.50;94.50
18508;DHT22;9383;50.928;12.116;2022-07-18T04:50:05;10.50;94.30
18508;DHT22;9383;50.928;12.116;2022-07-18T04:52:45;10.60;94.70
18508;DHT22;9383;50.928;12.116;2022-07-18T04:55:13;11.30;95.10
18508;DHT22;9383;50.928;12.116;2022-07-18T04:57:40;10.80;94.90
18508;DHT22;9383;50.928;12.116;2022-07-18T05:00:16;10.90;94.90
18508;DHT22;9383;50.928;12.116;2022-07-18T05:02:46;11.00;95.00
18508;DHT22;9383;50.928;12.116;2022-07-18T05:05:15;11.10;94.90
18508;DHT22;9383;50.928;12.116;2022-07-18T05:07:43;11.10;94.70
18508;DHT22;9383;50.928;12.116;2022-07-18T05:10:12;11.20;95.00
18508;DHT22;9383;50.928;12.116;2022-07-18T05:12:42;11.30;95.00
18508;DHT22;9383;50.928;12.116;2022-07-18T05:15:10;11.40;95.20
18508;DHT22;9383;50.928;12.116;2022-07-18T05:17:39;11.60;95.40
18508;DHT22;9383;50.928;12.116;2022-07-18T05:20:07;11.60;95.40
18508;DHT22;9383;50.928;12.116;2022-07-18T05:22:36;11.70;95.50
18508;DHT22;9383;50.928;12.116;2022-07-18T05:25:04;11.90;95.70
18508;DHT22;9383;50.928;12.116;2022-07-18T05:27:31;12.00;95.70
18508;DHT22;9383;50.928;12.116;2022-07-18T05:29:57;12.10;95.70
18508;DHT22;9383;50.928;12.116;2022-07-18T05:32:25;12.20;95.80
18508;DHT22;9383;50.928;12.116;2022-07-18T05:34:52;12.30;95.80
18508;DHT22;9383;50.928;12.116;2022-07-18T05:37:18;12.50;95.90
18508;DHT22;9383;50.928;12.116;2022-07-18T05:39:45;12.60;96.00
18508;DHT22;9383;50.928;12.116;2022-07-18T05:42:11;12.70;96.00
18508;DHT22;9383;50.928;12.116;2022-07-18T05:44:37;12.80;96.10
18508;DHT22;9383;50.928;12.116;2022-07-18T05:47:03;12.90;96.00
18508;DHT22;9383;50.928;12.116;2022-07-18T05:49:29;13.10;96.00
18508;DHT22;9383;50.928;12.116;2022-07-18T05:51:55;13.10;95.80
18508;DHT22;9383;50.928;12.116;2022-07-18T05:54:22;13.30;96.00
18508;DHT22;9383;50.928;12.116;2022-07-18T05:56:50;13.50;96.00
18508;DHT22;9383;50.928;12.116;2022-07-18T05:59:19;13.60;95.80
18508;DHT22;9383;50.928;12.116;2022-07-18T06:01:46;13.70;95.70
18508;DHT22;9383;50.928;12.116;2022-07-18T06:04:12;13.90;95.70
18508;DHT22;9383;50.928;12.116;2022-07-18T06:06:39;14.00;95.60
18508;DHT22;9383;50.928;12.116;2022-07-18T06:09:06;14.20;95.40
18508;DHT22;9383;50.928;12.116;2022-07-18T06:11:34;14.20;95.30
18508;DHT22;9383;50.928;12.116;2022-07-18T06:14:01;14.40;95.20
18508;DHT22;9383;50.928;12.116;2022-07-18T06:16:30;14.60;95.10
18508;DHT22;9383;50.928;12.116;2022-07-18T06:18:57;14.70;94.70
18508;DHT22;9383;50.928;12.116;2022-07-18T06:21:25;14.90;94.60
18508;DHT22;9383;50.928;12.116;2022-07-18T06:26:18;15.10;94.10
18508;DHT22;9383;50.928;12.116;2022-07-18T06:28:44;15.20;93.70
18508;DHT22;9383;50.928;12.116;2022-07-18T06:31:10;15.40;93.70
18508;DHT22;9383;50.928;12.116;2022-07-18T06:33:37;15.60;93.60
18508;DHT22;9383;50.928;12.116;2022-07-18T06:36:04;15.70;93.20
18508;DHT22;9383;50.928;12.116;2022-07-18T06:38:31;15.90;92.70
18508;DHT22;9383;50.928;12.116;2022-07-18T06:43:24;16.10;91.70
18508;DHT22;9383;50.928;12.116;2022-07-18T06:45:50;16.30;91.70
18508;DHT22;9383;50.928;12.116;2022-07-18T06:48:18;16.40;91.80
18508;DHT22;9383;50.928;12.116;2022-07-18T06:50:44;16.60;91.80
18508;DHT22;9383;50.928;12.116;2022-07-18T06:53:11;16.70;91.70
18508;DHT22;9383;50.928;12.116;2022-07-18T06:55:37;16.90;91.70
18508;DHT22;9383;50.928;12.116;2022-07-18T06:58:03;17.00;91.70
18508;DHT22;9383;50.928;12.116;2022-07-18T07:00:29;17.20;91.50
18508;DHT22;9383;50.928;12.116;2022-07-18T07:02:55;17.40;91.10
18508;DHT22;9383;50.928;12.116;2022-07-18T07:05:21;17.50;90.80
18508;DHT22;9383;50.928;12.116;2022-07-18T07:07:48;17.60;90.70
18508;DHT22;9383;50.928;12.116;2022-07-18T07:10:16;17.80;88.30
18508;DHT22;9383;50.928;12.116;2022-07-18T07:12:47;17.80;85.90
18508;DHT22;9383;50.928;12.116;2022-07-18T07:15:17;18.10;83.80
18508;DHT22;9383;50.928;12.116;2022-07-18T07:17:44;18.20;80.00
18508;DHT22;9383;50.928;12.116;2022-07-18T07:20:12;18.30;76.10
18508;DHT22;9383;50.928;12.116;2022-07-18T07:22:48;18.40;72.10
18508;DHT22;9383;50.928;12.116;2022-07-18T07:25:16;18.50;72.40
18508;DHT22;9383;50.928;12.116;2022-07-18T07:27:43;18.60;71.00
18508;DHT22;9383;50.928;12.116;2022-07-18T07:30:10;18.60;69.50
18508;DHT22;9383;50.928;12.116;2022-07-18T07:32:38;18.90;70.10
18508;DHT22;9383;50.928;12.116;2022-07-18T07:35:06;19.10;64.60
18508;DHT22;9383;50.928;12.116;2022-07-18T07:37:36;19.10;65.10
18508;DHT22;9383;50.928;12.116;2022-07-18T07:40:03;19.20;65.30
18508;DHT22;9383;50.928;12.116;2022-07-18T07:42:30;19.40;66.30
18508;DHT22;9383;50.928;12.116;2022-07-18T07:44:56;19.50;66.60
18508;DHT22;9383;50.928;12.116;2022-07-18T07:47:22;19.60;67.10
18508;DHT22;9383;50.928;12.116;2022-07-18T07:49:48;19.80;67.20
18508;DHT22;9383;50.928;12.116;2022-07-18T07:52:14;19.90;66.90
18508;DHT22;9383;50.928;12.116;2022-07-18T07:54:42;20.00;66.10
18508;DHT22;9383;50.928;12.116;2022-07-18T07:57:11;20.10;66.10
18508;DHT22;9383;50.928;12.116;2022-07-18T07:59:37;20.30;66.40
18508;DHT22;9383;50.928;12.116;2022-07-18T08:02:03;20.40;65.70
18508;DHT22;9383;50.928;12.116;2022-07-18T08:04:30;20.50;64.80
18508;DHT22;9383;50.928;12.116;2022-07-18T08:06:56;20.60;64.10
18508;DHT22;9383;50.928;12.116;2022-07-18T08:09:22;20.80;63.40
18508;DHT22;9383;50.928;12.116;2022-07-18T08:11:48;20.90;61.90
18508;DHT22;9383;50.928;12.116;2022-07-18T08:14:15;21.00;60.50
18508;DHT22;9383;50.928;12.116;2022-07-18T08:16:42;21.10;59.30
18508;DHT22;9383;50.928;12.116;2022-07-18T08:19:08;21.10;58.80
18508;DHT22;9383;50.928;12.116;2022-07-18T08:21:34;21.30;59.30
18508;DHT22;9383;50.928;12.116;2022-07-18T08:24:00;21.30;55.30
18508;DHT22;9383;50.928;12.116;2022-07-18T08:26:26;21.50;56.10
18508;DHT22;9383;50.928;12.116;2022-07-18T08:28:52;21.50;56.80
18508;DHT22;9383;50.928;12.116;2022-07-18T08:31:19;21.60;56.30
18508;DHT22;9383;50.928;12.116;2022-07-18T08:36:15;21.90;56.80
18508;DHT22;9383;50.928;12.116;2022-07-18T08:38:41;22.00;56.20
18508;DHT22;9383;50.928;12.116;2022-07-18T08:41:08;22.10;56.30
18508;DHT22;9383;50.928;12.116;2022-07-18T08:43:34;22.20;55.70
18508;DHT22;9383;50.928;12.116;2022-07-18T08:46:04;22.30;54.10
18508;DHT22;9383;50.928;12.116;2022-07-18T08:48:32;22.40;54.30
18508;DHT22;9383;50.928;12.116;2022-07-18T08:51:00;22.40;53.80
18508;DHT22;9383;50.928;12.116;2022-07-18T08:53:27;22.60;54.00
18508;DHT22;9383;50.928;12.116;2022-07-18T08:55:53;22.80;53.40
18508;DHT22;9383;50.928;12.116;2022-07-18T08:58:19;22.90;53.80
18508;DHT22;9383;50.928;12.116;2022-07-18T09:03:13;23.10;52.10
18508;DHT22;9383;50.928;12.116;2022-07-18T09:05:39;23.20;51.90
18508;DHT22;9383;50.928;12.116;2022-07-18T09:08:13;23.30;51.90
18508;DHT22;9383;50.928;12.116;2022-07-18T09:13:17;23.40;49.60
18508;DHT22;9383;50.928;12.116;2022-07-18T09:16:02;23.50;47.50
18508;DHT22;9383;50.928;12.116;2022-07-18T09:18:41;23.70;47.70
18508;DHT22;9383;50.928;12.116;2022-07-18T09:21:20;23.70;47.40
18508;DHT22;9383;50.928;12.116;2022-07-18T09:23:53;23.80;45.70
18508;DHT22;9383;50.928;12.116;2022-07-18T09:26:42;23.90;45.50
18508;DHT22;9383;50.928;12.116;2022-07-18T09:29:14;24.00;45.90
18508;DHT22;9383;50.928;12.116;2022-07-18T09:31:51;24.10;46.60
18508;DHT22;9383;50.928;12.116;2022-07-18T09:34:35;24.10;47.00
18508;DHT22;9383;50.928;12.116;2022-07-18T09:37:03;24.30;45.80
18508;DHT22;9383;50.928;12.116;2022-07-18T09:39:29;24.30;44.50
18508;DHT22;9383;50.928;12.116;2022-07-18T09:42:15;24.50;45.60
18508;DHT22;9383;50.928;12.116;2022-07-18T09:47:22;24.60;45.00
18508;DHT22;9383;50.928;12.116;2022-07-18T09:49:48;24.80;43.80
18508;DHT22;9383;50.928;12.116;2022-07-18T09:52:14;24.80;43.70
18508;DHT22;9383;50.928;12.116;2022-07-18T09:54:41;25.00;43.20
18508;DHT22;9383;50.928;12.116;2022-07-18T09:57:09;25.00;43.80
18508;DHT22;9383;50.928;12.116;2022-07-18T09:59:36;25.10;43.40
18508;DHT22;9383;50.928;12.116;2022-07-18T10:02:05;25.20;43.80
18508;DHT22;9383;50.928;12.116;2022-07-18T10:04:31;25.30;43.50
18508;DHT22;9383;50.928;12.116;2022-07-18T10:06:58;25.30;43.50
18508;DHT22;9383;50.928;12.116;2022-07-18T10:09:24;25.50;44.40
18508;DHT22;9383;50.928;12.116;2022-07-18T10:11:51;25.50;44.30
18508;DHT22;9383;50.928;12.116;2022-07-18T10:14:18;25.60;43.90
18508;DHT22;9383;50.928;12.116;2022-07-18T10:16:46;25.80;43.60
18508;DHT22;9383;50.928;12.116;2022-07-18T10:19:12;25.90;40.50
18508;DHT22;9383;50.928;12.116;2022-07-18T10:21:39;25.90;39.90
18508;DHT22;9383;50.928;12.116;2022-07-18T10:24:07;26.00;40.70
18508;DHT22;9383;50.928;12.116;2022-07-18T10:26:34;26.10;41.60
18508;DHT22;9383;50.928;12.116;2022-07-18T10:31:37;26.40;42.20
18508;DHT22;9383;50.928;12.116;2022-07-18T10:36:36;26.60;39.90
18508;DHT22;9383;50.928;12.116;2022-07-18T10:39:09;26.80;40.50
18508;DHT22;9383;50.928;12.116;2022-07-18T10:57:41;27.20;36.70
18508;DHT22;9383;50.928;12.116;2022-07-18T11:00:14;27.20;37.20
18508;DHT22;9383;50.928;12.116;2022-07-18T11:15:55;27.50;39.40
18508;DHT22;9383;50.928;12.116;2022-07-18T11:18:31;27.50;40.30
18508;DHT22;9383;50.928;12.116;2022-07-18T11:20:58;27.50;37.60
18508;DHT22;9383;50.928;12.116;2022-07-18T11:23:27;27.60;38.00
18508;DHT22;9383;50.928;12.116;2022-07-18T11:25:58;27.60;37.90
18508;DHT22;9383;50.928;12.116;2022-07-18T11:28:25;27.70;38.80
18508;DHT22;9383;50.928;12.116;2022-07-18T11:31:03;27.70;38.80
18508;DHT22;9383;50.928;12.116;2022-07-18T11:33:33;27.80;38.20
18508;DHT22;9383;50.928;12.116;2022-07-18T11:38:37;27.80;37.70
18508;DHT22;9383;50.928;12.116;2022-07-18T11:41:05;27.80;38.20
18508;DHT22;9383;50.928;12.116;2022-07-18T11:43:31;27.90;38.80
18508;DHT22;9383;50.928;12.116;2022-07-18T11:46:08;27.80;39.20
18508;DHT22;9383;50.928;12.116;2022-07-18T11:48:37;27.80;38.40
18508;DHT22;9383;50.928;12.116;2022-07-18T11:51:11;28.00;37.90
18508;DHT22;9383;50.928;12.116;2022-07-18T11:53:46;28.00;37.90
18508;DHT22;9383;50.928;12.116;2022-07-18T11:56:14;27.90;38.90
18508;DHT22;9383;50.928;12.116;2022-07-18T11:58:42;27.90;39.40
18508;DHT22;9383;50.928;12.116;2022-07-18T12:01:10;28.00;39.50
18508;DHT22;9383;50.928;12.116;2022-07-18T12:03:40;28.00;39.20
18508;DHT22;9383;50.928;12.116;2022-07-18T12:06:21;28.00;39.70
18508;DHT22;9383;50.928;12.116;2022-07-18T12:08:56;28.10;40.10
18508;DHT22;9383;50.928;12.116;2022-07-18T12:11:34;28.10;39.80
18508;DHT22;9383;50.928;12.116;2022-07-18T12:14:22;28.10;39.10
18508;DHT22;9383;50.928;12.116;2022-07-18T12:16:56;28.10;39.80
18508;DHT22;9383;50.928;12.116;2022-07-18T12:19:37;28.10;39.20
18508;DHT22;9383;50.928;12.116;2022-07-18T12:22:11;28.10;39.80
18508;DHT22;9383;50.928;12.116;2022-07-18T12:24:40;28.20;40.70
18508;DHT22;9383;50.928;12.116;2022-07-18T12:30:22;28.30;40.20
18508;DHT22;9383;50.928;12.116;2022-07-18T12:32:52;28.30;38.90
18508;DHT22;9383;50.928;12.116;2022-07-18T12:35:28;28.30;39.30
18508;DHT22;9383;50.928;12.116;2022-07-18T12:38:04;28.30;39.10
18508;DHT22;9383;50.928;12.116;2022-07-18T12:40:58;28.30;39.10
18508;DHT22;9383;50.928;12.116;2022-07-18T12:43:30;28.40;39.30
18508;DHT22;9383;50.928;12.116;2022-07-18T12:46:06;28.40;39.70
18508;DHT22;9383;50.928;12.116;2022-07-18T12:48:35;28.50;38.90
18508;DHT22;9383;50.928;12.116;2022-07-18T12:51:09;28.40;39.30
18508;DHT22;9383;50.928;12.116;2022-07-18T12:53:39;28.50;40.00
18508;DHT22;9383;50.928;12.116;2022-07-18T12:56:07;28.50;39.30
18508;DHT22;9383;50.928;12.116;2022-07-18T12:58:33;28.50;40.00
18508;DHT22;9383;50.928;12.116;2022-07-18T13:01:00;28.50;39.50
18508;DHT22;9383;50.928;12.116;2022-07-18T13:03:26;28.50;40.10
18508;DHT22;9383;50.928;12.116;2022-07-18T13:05:53;28.50;39.50
18508;DHT22;9383;50.928;12.116;2022-07-18T13:08:19;28.50;39.50
18508;DHT22;9383;50.928;12.116;2022-07-18T13:10:45;28.50;39.30
18508;DHT22;9383;50.928;12.116;2022-07-18T13:13:11;28.50;38.10
18508;DHT22;9383;50.928;12.116;2022-07-18T13:15:38;28.50;39.10
18508;DHT22;9383;50.928;12.116;2022-07-18T13:18:04;28.60;39.00
18508;DHT22;9383;50.928;12.116;2022-07-18T13:20:31;28.60;37.70
18508;DHT22;9383;50.928;12.116;2022-07-18T13:27:58;28.50;38.00
18508;DHT22;9383;50.928;12.116;2022-07-18T13:30:24;28.50;39.30
18508;DHT22;9383;50.928;12.116;2022-07-18T13:32:50;28.60;39.50
18508;DHT22;9383;50.928;12.116;2022-07-18T13:35:17;28.60;39.70
18508;DHT22;9383;50.928;12.116;2022-07-18T13:37:43;28.60;39.60
18508;DHT22;9383;50.928;12.116;2022-07-18T13:40:10;28.60;40.00
18508;DHT22;9383;50.928;12.116;2022-07-18T13:42:37;28.70;39.70
18508;DHT22;9383;50.928;12.116;2022-07-18T13:45:04;28.70;39.90
18508;DHT22;9383;50.928;12.116;2022-07-18T13:47:32;28.80;39.00
18508;DHT22;9383;50.928;12.116;2022-07-18T13:49:58;28.80;39.40
18508;DHT22;9383;50.928;12.116;2022-07-18T13:52:24;28.80;40.80
18508;DHT22;9383;50.928;12.116;2022-07-18T13:55:09;28.90;40.00
18508;DHT22;9383;50.928;12.116;2022-07-18T13:57:35;28.90;39.20
18508;DHT22;9383;50.928;12.116;2022-07-18T14:00:02;28.90;38.80
18508;DHT22;9383;50.928;12.116;2022-07-18T14:02:31;28.90;39.50
18508;DHT22;9383;50.928;12.116;2022-07-18T14:04:57;29.00;39.50
18508;DHT22;9383;50.928;12.116;2022-07-18T14:07:23;29.00;39.20
18508;DHT22;9383;50.928;12.116;2022-07-18T14:09:49;29.00;39.60
18508;DHT22;9383;50.928;12.116;2022-07-18T14:12:16;29.10;39.00
18508;DHT22;9383;50.928;12.116;2022-07-18T14:14:42;29.00;38.30
18508;DHT22;9383;50.928;12.116;2022-07-18T14:17:08;29.00;37.40
18508;DHT22;9383;50.928;12.116;2022-07-18T14:19:34;29.00;37.80
18508;DHT22;9383;50.928;12.116;2022-07-18T14:24:30;29.00;37.80
18508;DHT22;9383;50.928;12.116;2022-07-18T14:26:56;29.00;38.80
18508;DHT22;9383;50.928;12.116;2022-07-18T14:31:48;29.00;39.30
18508;DHT22;9383;50.928;12.116;2022-07-18T14:34:14;29.10;40.00
18508;DHT22;9383;50.928;12.116;2022-07-18T14:36:40;29.10;40.20
18508;DHT22;9383;50.928;12.116;2022-07-18T14:39:06;29.10;40.40
18508;DHT22;9383;50.928;12.116;2022-07-18T14:41:32;29.20;40.00
18508;DHT22;9383;50.928;12.116;2022-07-18T14:43:59;29.30;41.00
18508;DHT22;9383;50.928;12.116;2022-07-18T14:46:25;29.20;40.00
18508;DHT22;9383;50.928;12.116;2022-07-18T14:48:52;29.20;40.40
18508;DHT22;9383;50.928;12.116;2022-07-18T14:51:18;29.30;40.10
18508;DHT22;9383;50.928;12.116;2022-07-18T14:56:11;29.30;40.30
18508;DHT22;9383;50.928;12.116;2022-07-18T15:01:04;29.30;40.20
18508;DHT22;9383;50.928;12.116;2022-07-18T15:03:30;29.30;40.40
18508;DHT22;9383;50.928;12.116;2022-07-18T15:05:56;29.30;39.90
18508;DHT22;9383;50.928;12.116;2022-07-18T15:08:22;29.30;39.40
18508;DHT22;9383;50.928;12.116;2022-07-18T15:10:48;29.30;39.20
18508;DHT22;9383;50.928;12.116;2022-07-18T15:13:14;29.30;38.60
18508;DHT22;9383;50.928;12.116;2022-07-18T15:15:40;29.30;39.00
18508;DHT22;9383;50.928;12.116;2022-07-18T15:18:06;29.30;38.90
18508;DHT22;9383;50.928;12.116;2022-07-18T15:20:32;29.40;40.00
18508;DHT22;9383;50.928;12.116;2022-07-18T15:22:58;29.30;38.90
18508;DHT22;9383;50.928;12.116;2022-07-18T15:25:24;29.30;39.20
18508;DHT22;9383;50.928;12.116;2022-07-18T15:27:50;29.30;38.40
18508;DHT22;9383;50.928;12.116;2022-07-18T15:32:43;29.30;38.80
18508;DHT22;9383;50.928;12.116;2022-07-18T15:35:09;29.30;39.40
18508;DHT22;9383;50.928;12.116;2022-07-18T15:37:35;29.40;39.50
18508;DHT22;9383;50.928;12.116;2022-07-18T15:40:01;29.70;39.70
18508;DHT22;9383;50.928;12.116;2022-07-18T15:42:27;29.40;39.20
18508;DHT22;9383;50.928;12.116;2022-07-18T15:44:53;29.50;40.10
18508;DHT22;9383;50.928;12.116;2022-07-18T15:47:19;29.50;39.40
18508;DHT22;9383;50.928;12.116;2022-07-18T15:49:45;29.60;40.00
18508;DHT22;9383;50.928;12.116;2022-07-18T15:52:12;29.60;39.00
18508;DHT22;9383;50.928;12.116;2022-07-18T15:54:38;29.60;38.70
18508;DHT22;9383;50.928;12.116;2022-07-18T16:09:18;29.60;40.00
18508;DHT22;9383;50.928;12.116;2022-07-18T16:11:46;29.70;40.80
18508;DHT22;9383;50.928;12.116;2022-07-18T16:14:12;29.40;39.60
18508;DHT22;9383;50.928;12.116;2022-07-18T16:16:39;29.50;39.80
18508;DHT22;9383;50.928;12.116;2022-07-18T16:19:06;29.50;39.60
18508;DHT22;9383;50.928;12.116;2022-07-18T16:21:34;29.50;39.30
18508;DHT22;9383;50.928;12.116;2022-07-18T16:24:01;29.60;39.80
18508;DHT22;9383;50.928;12.116;2022-07-18T16:26:27;29.50;40.70
18508;DHT22;9383;50.928;12.116;2022-07-18T16:28:54;29.60;41.60
18508;DHT22;9383;50.928;12.116;2022-07-18T16:31:20;29.60;42.80
18508;DHT22;9383;50.928;12.116;2022-07-18T16:33:47;29.60;44.70
18508;DHT22;9383;50.928;12.116;2022-07-18T16:36:13;29.60;45.50
18508;DHT22;9383;50.928;12.116;2022-07-18T16:38:39;29.60;45.80
18508;DHT22;9383;50.928;12.116;2022-07-18T16:41:06;29.70;46.20
18508;DHT22;9383;50.928;12.116;2022-07-18T16:45:59;29.70;43.50
18508;DHT22;9383;50.928;12.116;2022-07-18T16:53:19;29.60;45.40
18508;DHT22;9383;50.928;12.116;2022-07-18T16:55:46;29.70;47.40
18508;DHT22;9383;50.928;12.116;2022-07-18T16:58:13;29.60;46.90
18508;DHT22;9383;50.928;12.116;2022-07-18T17:08:02;29.50;45.70
18508;DHT22;9383;50.928;12.116;2022-07-18T17:12:56;29.40;47.80
18508;DHT22;9383;50.928;12.116;2022-07-18T17:15:23;29.40;48.80
18508;DHT22;9383;50.928;12.116;2022-07-18T17:17:49;29.40;48.90
18508;DHT22;9383;50.928;12.116;2022-07-18T17:22:43;29.30;49.20
18508;DHT22;9383;50.928;12.116;2022-07-18T17:25:11;30.20;51.20
18508;DHT22;9383;50.928;12.116;2022-07-18T17:27:41;29.20;50.20